PWSweather.com
Personal Weather Stations
Station Observations
SPARKSRC
St. Petersburg, FL 33716

St. Petersburg, FL 33716

Lat: 27.876101, Lon: -82.657194

Elevation: 13

Station Type: Zephyr PWS-1000TD

Latest ConditionsUpdated 2:45:01 PM EST Tuesday, Dec 6, 2016
Currently Today's Max Today's Min Today's Average
Temperature 81.7°F27.6°C 85.3°F29.6°C 76.5°F24.7°C 79.0°F26.1°C
Dew Point 74.6°F23.7°C 77.3°F25.2°C 71.1°F21.7°C 73.4°F23.0°C
Winds 13.6 mph SW21.9 kmh SW 26.6 mph S42.8 kmh S - 16.8 mph 27.0 kmh
Wind Gusts 19.7 mph31.7 kmh 36.5 mph58.7 kmh - -
Humidity 79% 88% 76% 83%
Pressure 29.77 in1008.1 mb 29.82 in1009.8 mb 29.76 in1007.8 mb -
Precipitation - 0.04 in1.0 mm - -
Hour Temp Dew Point Humidity Winds Wind Gusts Pressure Precip Precip Rate Daily Precip Total
02:45 PM 81.7°F27.6°C 74.6°F23.7°C 79% 13.6 mph SW21.9 kmh SW 19.7 mph31.7 kmh 29.77 in1008.1 mb 0.00 in0.0 mm 0.00 in0.0 mm 0.04 in1.0 mm
02:40 PM 81.9°F27.7°C 74.8°F23.8°C 79% 13.6 mph SW21.9 kmh SW 19.0 mph30.6 kmh 29.77 in1008.1 mb 0.00 in0.0 mm 0.00 in0.0 mm 0.04 in1.0 mm
02:35 PM 82.0°F27.8°C 75.3°F24.1°C 80% 13.6 mph SW21.9 kmh SW 19.7 mph31.7 kmh 29.77 in1008.1 mb 0.00 in0.0 mm 0.00 in0.0 mm 0.04 in1.0 mm
02:30 PM 81.5°F27.5°C 74.8°F23.8°C 80% 11.4 mph SW18.3 kmh SW 19.7 mph31.7 kmh 29.77 in1008.1 mb 0.00 in0.0 mm 0.00 in0.0 mm 0.04 in1.0 mm
02:25 PM 81.5°F27.5°C 74.8°F23.8°C 80% 13.0 mph SW20.9 kmh SW 18.3 mph29.5 kmh 29.77 in1008.1 mb 0.00 in0.0 mm 0.00 in0.0 mm 0.04 in1.0 mm
02:20 PM 81.7°F27.6°C 75.0°F23.9°C 80% 13.6 mph WSW21.9 kmh WSW 22.1 mph35.6 kmh 29.77 in1008.1 mb 0.00 in0.0 mm 0.00 in0.0 mm 0.04 in1.0 mm
02:15 PM 81.7°F27.6°C 75.0°F23.9°C 80% 13.0 mph WSW20.9 kmh WSW 22.1 mph35.6 kmh 29.77 in1008.1 mb 0.00 in0.0 mm 0.00 in0.0 mm 0.04 in1.0 mm
02:10 PM 81.5°F27.5°C 75.2°F24.0°C 81% 15.9 mph WSW25.6 kmh WSW 22.1 mph35.6 kmh 29.78 in1008.5 mb 0.00 in0.0 mm 0.00 in0.0 mm 0.04 in1.0 mm
02:05 PM 81.1°F27.3°C 75.2°F24.0°C 82% 8.3 mph WSW13.4 kmh WSW 18.3 mph29.5 kmh 29.78 in1008.5 mb 0.00 in0.0 mm 0.00 in0.0 mm 0.04 in1.0 mm
02:00 PM 80.4°F26.9°C 74.8°F23.8°C 83% 12.1 mph SW19.5 kmh SW 19.7 mph31.7 kmh 29.77 in1008.1 mb 0.00 in0.0 mm 0.00 in0.0 mm 0.04 in1.0 mm
01:55 PM 79.9°F26.6°C 74.3°F23.5°C 83% 11.4 mph WSW18.3 kmh WSW 19.7 mph31.7 kmh 29.78 in1008.5 mb 0.00 in0.0 mm 0.00 in0.0 mm 0.04 in1.0 mm
01:50 PM 79.5°F26.4°C 74.0°F23.3°C 83% 12.1 mph SW19.5 kmh SW 17.4 mph28.0 kmh 29.78 in1008.5 mb 0.00 in0.0 mm 0.00 in0.0 mm 0.04 in1.0 mm
01:45 PM 79.2°F26.2°C 73.6°F23.1°C 83% 12.1 mph SW19.5 kmh SW 20.6 mph33.2 kmh 29.78 in1008.5 mb 0.01 in0.3 mm 0.00 in0.0 mm 0.04 in1.0 mm
01:40 PM 79.2°F26.2°C 73.6°F23.1°C 83% 14.5 mph SW23.3 kmh SW 20.6 mph33.2 kmh 29.78 in1008.5 mb 0.01 in0.3 mm 0.00 in0.0 mm 0.04 in1.0 mm
01:35 PM 79.2°F26.2°C 73.6°F23.1°C 83% 15.9 mph SW25.6 kmh SW 20.6 mph33.2 kmh 29.79 in1008.8 mb 0.01 in0.3 mm 0.00 in0.0 mm 0.04 in1.0 mm
01:30 PM 79.2°F26.2°C 73.6°F23.1°C 83% 14.5 mph SW23.3 kmh SW 21.3 mph34.3 kmh 29.79 in1008.8 mb 0.04 in1.0 mm 0.00 in0.0 mm 0.04 in1.0 mm
01:25 PM 79.0°F26.1°C 73.4°F23.0°C 83% 15.9 mph SW25.6 kmh SW 22.1 mph35.6 kmh 29.80 in1009.1 mb 0.04 in1.0 mm 0.00 in0.0 mm 0.04 in1.0 mm
01:20 PM 79.0°F26.1°C 73.4°F23.0°C 83% 13.6 mph SW21.9 kmh SW 22.1 mph35.6 kmh 29.80 in1009.1 mb 0.04 in1.0 mm 0.00 in0.0 mm 0.04 in1.0 mm
01:15 PM 79.0°F26.1°C 73.4°F23.0°C 83% 13.6 mph SW21.9 kmh SW 21.3 mph34.3 kmh 29.79 in1008.8 mb 0.04 in1.0 mm 0.00 in0.0 mm 0.04 in1.0 mm
01:10 PM 79.0°F26.1°C 73.4°F23.0°C 83% 14.5 mph SW23.3 kmh SW 25.9 mph41.7 kmh 29.78 in1008.5 mb 0.04 in1.0 mm 0.00 in0.0 mm 0.04 in1.0 mm
01:05 PM 79.2°F26.2°C 73.6°F23.1°C 83% 14.5 mph SW23.3 kmh SW 29.8 mph48.0 kmh 29.78 in1008.5 mb 0.04 in1.0 mm 0.00 in0.0 mm 0.04 in1.0 mm
01:00 PM 79.3°F26.3°C 73.8°F23.2°C 83% 20.6 mph SW33.2 kmh SW 29.8 mph48.0 kmh 29.79 in1008.8 mb 0.04 in1.0 mm 0.00 in0.0 mm 0.04 in1.0 mm
12:55 PM 79.5°F26.4°C 73.6°F23.1°C 82% 13.6 mph SW21.9 kmh SW 25.1 mph40.4 kmh 29.79 in1008.8 mb 0.04 in1.0 mm 0.00 in0.0 mm 0.04 in1.0 mm
12:50 PM 79.7°F26.5°C 73.8°F23.2°C 82% 14.5 mph SW23.3 kmh SW 25.1 mph40.4 kmh 29.79 in1008.8 mb 0.04 in1.0 mm 0.24 in6.1 mm 0.04 in1.0 mm
12:45 PM 80.1°F26.7°C 73.8°F23.2°C 81% 13.0 mph SW20.9 kmh SW 18.3 mph29.5 kmh 29.79 in1008.8 mb 0.02 in0.5 mm 0.00 in0.0 mm 0.02 in0.5 mm
12:40 PM 80.6°F27.0°C 74.3°F23.5°C 81% 12.1 mph SW19.5 kmh SW 22.1 mph35.6 kmh 29.79 in1008.8 mb 0.02 in0.5 mm 0.00 in0.0 mm 0.02 in0.5 mm
12:35 PM 81.1°F27.3°C 74.4°F23.6°C 80% 8.3 mph SW13.4 kmh SW 22.1 mph35.6 kmh 29.78 in1008.5 mb 0.02 in0.5 mm 0.24 in6.1 mm 0.02 in0.5 mm
12:30 PM 81.9°F27.7°C 75.1°F23.9°C 80% 14.5 mph SW23.3 kmh SW 22.1 mph35.6 kmh 29.79 in1008.8 mb 0.00 in0.0 mm 0.00 in0.0 mm 0.00 in0.0 mm
12:25 PM 82.0°F27.8°C 75.3°F24.1°C 80% 16.8 mph SW27.0 kmh SW 22.1 mph35.6 kmh 29.78 in1008.5 mb 0.00 in0.0 mm 0.00 in0.0 mm 0.00 in0.0 mm
12:20 PM 82.0°F27.8°C 75.3°F24.1°C 80% 15.2 mph SSW24.5 kmh SSW 26.6 mph42.8 kmh 29.78 in1008.5 mb 0.00 in0.0 mm 0.00 in0.0 mm 0.00 in0.0 mm
12:15 PM 82.0°F27.8°C 75.3°F24.1°C 80% 15.2 mph SSW24.5 kmh SSW 26.6 mph42.8 kmh 29.79 in1008.8 mb 0.00 in0.0 mm 0.00 in0.0 mm 0.00 in0.0 mm
12:10 PM 82.4°F28.0°C 75.3°F24.1°C 79% 13.6 mph SSW21.9 kmh SSW 22.8 mph36.7 kmh 29.79 in1008.8 mb 0.00 in0.0 mm 0.00 in0.0 mm 0.00 in0.0 mm
12:05 PM 82.8°F28.2°C 75.6°F24.2°C 79% 18.3 mph SSW29.5 kmh SSW 25.9 mph41.7 kmh 29.79 in1008.8 mb 0.00 in0.0 mm 0.00 in0.0 mm 0.00 in0.0 mm
12:00 PM 82.9°F28.3°C 75.8°F24.3°C 79% 18.3 mph SW29.5 kmh SW 25.9 mph41.7 kmh 29.79 in1008.8 mb 0.00 in0.0 mm 0.00 in0.0 mm 0.00 in0.0 mm
11:55 AM 82.9°F28.3°C 75.8°F24.3°C 79% 17.4 mph SSW28.0 kmh SSW 32.7 mph52.6 kmh 29.80 in1009.1 mb 0.00 in0.0 mm 0.00 in0.0 mm 0.00 in0.0 mm
11:50 AM 82.8°F28.2°C 75.6°F24.2°C 79% 15.2 mph SSW24.5 kmh SSW 32.7 mph52.6 kmh 29.80 in1009.1 mb 0.00 in0.0 mm 0.00 in0.0 mm 0.00 in0.0 mm
11:45 AM 83.1°F28.4°C 76.0°F24.4°C 79% 25.9 mph SSW41.7 kmh SSW 32.7 mph52.6 kmh 29.80 in1009.1 mb 0.00 in0.0 mm 0.00 in0.0 mm 0.00 in0.0 mm
11:40 AM 82.9°F28.3°C 75.8°F24.3°C 79% 21.3 mph SSW34.3 kmh SSW 28.2 mph45.4 kmh 29.80 in1009.1 mb 0.00 in0.0 mm 0.00 in0.0 mm 0.00 in0.0 mm
11:35 AM 82.8°F28.2°C 75.6°F24.2°C 79% 20.6 mph SSW33.2 kmh SSW 32.0 mph51.5 kmh 29.80 in1009.1 mb 0.00 in0.0 mm 0.00 in0.0 mm 0.00 in0.0 mm
11:30 AM 83.1°F28.4°C 75.6°F24.2°C 78% 22.1 mph SSW35.6 kmh SSW 32.0 mph51.5 kmh 29.80 in1009.1 mb 0.00 in0.0 mm 0.00 in0.0 mm 0.00 in0.0 mm
11:25 AM 83.5°F28.6°C 75.6°F24.2°C 77% 23.5 mph SW37.8 kmh SW 29.8 mph48.0 kmh 29.80 in1009.1 mb 0.00 in0.0 mm 0.00 in0.0 mm 0.00 in0.0 mm
11:20 AM 84.0°F28.9°C 75.7°F24.3°C 76% 19.0 mph SSW30.6 kmh SSW 28.2 mph45.4 kmh 29.81 in1009.5 mb 0.00 in0.0 mm 0.00 in0.0 mm 0.00 in0.0 mm
11:15 AM 84.7°F29.3°C 76.4°F24.7°C 76% 19.0 mph SSW30.6 kmh SSW 30.4 mph48.9 kmh 29.81 in1009.5 mb 0.00 in0.0 mm 0.00 in0.0 mm 0.00 in0.0 mm
11:10 AM 85.1°F29.5°C 76.8°F24.9°C 76% 18.3 mph S29.5 kmh S 30.4 mph48.9 kmh 29.81 in1009.5 mb 0.00 in0.0 mm 0.00 in0.0 mm 0.00 in0.0 mm
11:05 AM 84.9°F29.4°C 77.0°F25.0°C 77% 18.3 mph S29.5 kmh S 35.8 mph57.6 kmh 29.82 in1009.8 mb 0.00 in0.0 mm 0.00 in0.0 mm 0.00 in0.0 mm
11:00 AM 84.7°F29.3°C 76.4°F24.7°C 76% 19.0 mph S30.6 kmh S 35.8 mph57.6 kmh 29.82 in1009.8 mb 0.00 in0.0 mm 0.00 in0.0 mm 0.00 in0.0 mm
10:55 AM 85.1°F29.5°C 76.8°F24.9°C 76% 26.6 mph S42.8 kmh S 35.8 mph57.6 kmh 29.82 in1009.8 mb 0.00 in0.0 mm 0.00 in0.0 mm 0.00 in0.0 mm
10:50 AM 85.3°F29.6°C 77.3°F25.2°C 77% 20.6 mph S33.2 kmh S 32.7 mph52.6 kmh 29.82 in1009.8 mb 0.00 in0.0 mm 0.00 in0.0 mm 0.00 in0.0 mm
10:45 AM 84.9°F29.4°C 77.0°F25.0°C 77% 24.4 mph SSW39.3 kmh SSW 32.7 mph52.6 kmh 29.82 in1009.8 mb 0.00 in0.0 mm 0.00 in0.0 mm 0.00 in0.0 mm
10:40 AM 84.9°F29.4°C 77.0°F25.0°C 77% 18.3 mph SSW29.5 kmh SSW 30.4 mph48.9 kmh 29.82 in1009.8 mb 0.00 in0.0 mm 0.00 in0.0 mm 0.00 in0.0 mm
10:35 AM 84.7°F29.3°C 77.2°F25.1°C 78% 19.7 mph S31.7 kmh S 30.4 mph48.9 kmh 29.82 in1009.8 mb 0.00 in0.0 mm 0.00 in0.0 mm 0.00 in0.0 mm
10:30 AM 83.1°F28.4°C 76.4°F24.7°C 80% 19.0 mph S30.6 kmh S 27.3 mph43.9 kmh 29.82 in1009.8 mb 0.00 in0.0 mm 0.00 in0.0 mm 0.00 in0.0 mm
10:25 AM 83.1°F28.4°C 76.4°F24.7°C 80% 19.0 mph S30.6 kmh S 30.4 mph48.9 kmh 29.82 in1009.8 mb 0.00 in0.0 mm 0.00 in0.0 mm 0.00 in0.0 mm
10:20 AM 82.8°F28.2°C 76.0°F24.4°C 80% 19.0 mph S30.6 kmh S 30.4 mph48.9 kmh 29.82 in1009.8 mb 0.00 in0.0 mm 0.00 in0.0 mm 0.00 in0.0 mm
10:15 AM 82.8°F28.2°C 76.0°F24.4°C 80% 19.7 mph SSW31.7 kmh SSW 25.9 mph41.7 kmh 29.82 in1009.8 mb 0.00 in0.0 mm 0.00 in0.0 mm 0.00 in0.0 mm
10:10 AM 82.2°F27.9°C 75.9°F24.4°C 81% 19.7 mph SSW31.7 kmh SSW 28.2 mph45.4 kmh 29.82 in1009.8 mb 0.00 in0.0 mm 0.00 in0.0 mm 0.00 in0.0 mm
10:05 AM 82.2°F27.9°C 75.9°F24.4°C 81% 17.4 mph S28.0 kmh S 28.2 mph45.4 kmh 29.82 in1009.8 mb 0.00 in0.0 mm 0.00 in0.0 mm 0.00 in0.0 mm
10:00 AM 82.0°F27.8°C 75.7°F24.3°C 81% 19.0 mph S30.6 kmh S 28.2 mph45.4 kmh 29.82 in1009.8 mb 0.00 in0.0 mm 0.00 in0.0 mm 0.00 in0.0 mm
09:55 AM 82.0°F27.8°C 75.7°F24.3°C 81% 19.0 mph S30.6 kmh S 28.2 mph45.4 kmh 29.82 in1009.8 mb 0.00 in0.0 mm 0.00 in0.0 mm 0.00 in0.0 mm
09:50 AM 81.9°F27.7°C 75.9°F24.4°C 82% 18.3 mph S29.5 kmh S 29.8 mph48.0 kmh 29.82 in1009.8 mb 0.00 in0.0 mm 0.00 in0.0 mm 0.00 in0.0 mm
09:45 AM 81.7°F27.6°C 75.3°F24.1°C 81% 19.7 mph S31.7 kmh S 29.8 mph48.0 kmh 29.82 in1009.8 mb 0.00 in0.0 mm 0.00 in0.0 mm 0.00 in0.0 mm
09:40 AM 81.7°F27.6°C 75.3°F24.1°C 81% 17.4 mph S28.0 kmh S 27.3 mph43.9 kmh 29.82 in1009.8 mb 0.00 in0.0 mm 0.00 in0.0 mm 0.00 in0.0 mm
09:35 AM 81.7°F27.6°C 75.7°F24.3°C 82% 17.4 mph S28.0 kmh S 32.7 mph52.6 kmh 29.82 in1009.8 mb 0.00 in0.0 mm 0.00 in0.0 mm 0.00 in0.0 mm
09:30 AM 81.7°F27.6°C 76.1°F24.5°C 83% 23.5 mph S37.8 kmh S 36.5 mph58.7 kmh 29.81 in1009.5 mb 0.00 in0.0 mm 0.00 in0.0 mm 0.00 in0.0 mm
09:25 AM 81.1°F27.3°C 75.5°F24.2°C 83% 20.6 mph SSW33.2 kmh SSW 36.5 mph58.7 kmh 29.81 in1009.5 mb 0.00 in0.0 mm 0.00 in0.0 mm 0.00 in0.0 mm
09:20 AM 80.6°F27.0°C 75.4°F24.1°C 84% 19.0 mph S30.6 kmh S 36.5 mph58.7 kmh 29.81 in1009.5 mb 0.00 in0.0 mm 0.00 in0.0 mm 0.00 in0.0 mm
09:15 AM 80.1°F26.7°C 74.8°F23.8°C 84% 19.0 mph S30.6 kmh S 27.3 mph43.9 kmh 29.81 in1009.5 mb 0.00 in0.0 mm 0.00 in0.0 mm 0.00 in0.0 mm
09:10 AM 79.9°F26.6°C 74.7°F23.7°C 84% 22.8 mph S36.7 kmh S 28.9 mph46.5 kmh 29.81 in1009.5 mb 0.00 in0.0 mm 0.00 in0.0 mm 0.00 in0.0 mm
09:05 AM 79.7°F26.5°C 74.5°F23.6°C 84% 19.0 mph S30.6 kmh S 31.1 mph50.1 kmh 29.81 in1009.5 mb 0.00 in0.0 mm 0.00 in0.0 mm 0.00 in0.0 mm
09:00 AM 79.9°F26.6°C 74.7°F23.7°C 84% 19.0 mph S30.6 kmh S 31.1 mph50.1 kmh 29.81 in1009.5 mb 0.00 in0.0 mm 0.00 in0.0 mm 0.00 in0.0 mm
08:55 AM 79.7°F26.5°C 74.5°F23.6°C 84% 22.1 mph S35.6 kmh S 30.4 mph48.9 kmh 29.80 in1009.1 mb 0.00 in0.0 mm 0.00 in0.0 mm 0.00 in0.0 mm
08:50 AM 79.9°F26.6°C 75.0°F23.9°C 85% 22.1 mph S35.6 kmh S 28.9 mph46.5 kmh 29.80 in1009.1 mb 0.00 in0.0 mm 0.00 in0.0 mm 0.00 in0.0 mm
08:45 AM 79.7°F26.5°C 74.8°F23.8°C 85% 20.6 mph S33.2 kmh S 28.9 mph46.5 kmh 29.80 in1009.1 mb 0.00 in0.0 mm 0.00 in0.0 mm 0.00 in0.0 mm
08:40 AM 79.5°F26.4°C 74.7°F23.7°C 85% 19.0 mph S30.6 kmh S 27.3 mph43.9 kmh 29.80 in1009.1 mb 0.00 in0.0 mm 0.00 in0.0 mm 0.00 in0.0 mm
08:35 AM 79.3°F26.3°C 74.8°F23.8°C 86% 19.0 mph S30.6 kmh S 29.8 mph48.0 kmh 29.80 in1009.1 mb 0.00 in0.0 mm 0.00 in0.0 mm 0.00 in0.0 mm
08:30 AM 78.8°F26.0°C 74.7°F23.7°C 87% 17.4 mph S28.0 kmh S 29.8 mph48.0 kmh 29.80 in1009.1 mb 0.00 in0.0 mm 0.00 in0.0 mm 0.00 in0.0 mm
08:25 AM 78.3°F25.7°C 74.1°F23.4°C 87% 16.8 mph S27.0 kmh S 28.2 mph45.4 kmh 29.80 in1009.1 mb 0.00 in0.0 mm 0.00 in0.0 mm 0.00 in0.0 mm
08:20 AM 77.9°F25.5°C 73.8°F23.2°C 87% 18.3 mph S29.5 kmh S 28.2 mph45.4 kmh 29.80 in1009.1 mb 0.00 in0.0 mm 0.00 in0.0 mm 0.00 in0.0 mm
08:15 AM 77.9°F25.5°C 73.8°F23.2°C 87% 21.3 mph S34.3 kmh S 28.2 mph45.4 kmh 29.80 in1009.1 mb 0.00 in0.0 mm 0.00 in0.0 mm 0.00 in0.0 mm
08:10 AM 77.7°F25.4°C 73.9°F23.3°C 88% 19.0 mph S30.6 kmh S 27.3 mph43.9 kmh 29.80 in1009.1 mb 0.00 in0.0 mm 0.00 in0.0 mm 0.00 in0.0 mm
08:05 AM 77.5°F25.3°C 73.8°F23.2°C 88% 18.3 mph S29.5 kmh S 27.3 mph43.9 kmh 29.80 in1009.1 mb 0.00 in0.0 mm 0.00 in0.0 mm 0.00 in0.0 mm
08:00 AM 77.4°F25.2°C 73.6°F23.1°C 88% 17.4 mph S28.0 kmh S 27.3 mph43.9 kmh 29.80 in1009.1 mb 0.00 in0.0 mm 0.00 in0.0 mm 0.00 in0.0 mm
07:55 AM 77.2°F25.1°C 73.4°F23.0°C 88% 17.4 mph S28.0 kmh S 26.6 mph42.8 kmh 29.80 in1009.1 mb 0.00 in0.0 mm 0.00 in0.0 mm 0.00 in0.0 mm
07:50 AM 77.0°F25.0°C 73.2°F22.9°C 88% 16.8 mph S27.0 kmh S 32.0 mph51.5 kmh 29.80 in1009.1 mb 0.00 in0.0 mm 0.00 in0.0 mm 0.00 in0.0 mm
07:45 AM 77.0°F25.0°C 73.2°F22.9°C 88% 22.8 mph S36.7 kmh S 32.0 mph51.5 kmh 29.80 in1009.1 mb 0.00 in0.0 mm 0.00 in0.0 mm 0.00 in0.0 mm
07:40 AM 76.8°F24.9°C 73.0°F22.8°C 88% 18.3 mph S29.5 kmh S 28.9 mph46.5 kmh 29.79 in1008.8 mb 0.00 in0.0 mm 0.00 in0.0 mm 0.00 in0.0 mm
07:35 AM 76.8°F24.9°C 73.0°F22.8°C 88% 16.8 mph S27.0 kmh S 28.9 mph46.5 kmh 29.79 in1008.8 mb 0.00 in0.0 mm 0.00 in0.0 mm 0.00 in0.0 mm
07:30 AM 76.6°F24.8°C 72.9°F22.7°C 88% 19.7 mph S31.7 kmh S 26.6 mph42.8 kmh 29.79 in1008.8 mb 0.00 in0.0 mm 0.00 in0.0 mm 0.00 in0.0 mm
07:25 AM 76.5°F24.7°C 72.7°F22.6°C 88% 22.1 mph S35.6 kmh S 25.9 mph41.7 kmh 29.79 in1008.8 mb 0.00 in0.0 mm 0.00 in0.0 mm 0.00 in0.0 mm
07:20 AM 76.6°F24.8°C 72.9°F22.7°C 88% 15.9 mph S25.6 kmh S 25.9 mph41.7 kmh 29.79 in1008.8 mb 0.00 in0.0 mm 0.00 in0.0 mm 0.00 in0.0 mm
07:15 AM 76.5°F24.7°C 72.4°F22.4°C 87% 16.8 mph S27.0 kmh S 28.2 mph45.4 kmh 29.80 in1009.1 mb 0.00 in0.0 mm 0.00 in0.0 mm 0.00 in0.0 mm
07:10 AM 76.5°F24.7°C 72.4°F22.4°C 87% 16.8 mph S27.0 kmh S 28.2 mph45.4 kmh 29.79 in1008.8 mb 0.00 in0.0 mm 0.00 in0.0 mm 0.00 in0.0 mm
07:05 AM 76.6°F24.8°C 72.5°F22.5°C 87% 21.3 mph S34.3 kmh S 28.2 mph45.4 kmh 29.78 in1008.5 mb 0.00 in0.0 mm 0.00 in0.0 mm 0.00 in0.0 mm
07:00 AM 76.6°F24.8°C 72.5°F22.5°C 87% 15.9 mph S25.6 kmh S 25.9 mph41.7 kmh 29.78 in1008.5 mb 0.00 in0.0 mm 0.00 in0.0 mm 0.00 in0.0 mm
06:55 AM 76.6°F24.8°C 72.5°F22.5°C 87% 21.3 mph S34.3 kmh S 25.9 mph41.7 kmh 29.79 in1008.8 mb 0.00 in0.0 mm 0.00 in0.0 mm 0.00 in0.0 mm
06:50 AM 76.6°F24.8°C 72.5°F22.5°C 87% 16.8 mph S27.0 kmh S 24.4 mph39.3 kmh 29.79 in1008.8 mb 0.00 in0.0 mm 0.00 in0.0 mm 0.00 in0.0 mm
06:45 AM 76.6°F24.8°C 72.5°F22.5°C 87% 19.7 mph S31.7 kmh S 24.4 mph39.3 kmh 29.79 in1008.8 mb 0.00 in0.0 mm 0.00 in0.0 mm 0.00 in0.0 mm
06:40 AM 76.5°F24.7°C 72.4°F22.4°C 87% 18.3 mph S29.5 kmh S 30.4 mph48.9 kmh 29.79 in1008.8 mb 0.00 in0.0 mm 0.00 in0.0 mm 0.00 in0.0 mm
06:35 AM 76.6°F24.8°C 72.5°F22.5°C 87% 16.8 mph S27.0 kmh S 30.4 mph48.9 kmh 29.79 in1008.8 mb 0.00 in0.0 mm 0.00 in0.0 mm 0.00 in0.0 mm
06:30 AM 76.5°F24.7°C 72.4°F22.4°C 87% 14.5 mph S23.3 kmh S 26.6 mph42.8 kmh 29.79 in1008.8 mb 0.00 in0.0 mm 0.00 in0.0 mm 0.00 in0.0 mm
06:25 AM 76.5°F24.7°C 72.4°F22.4°C 87% 19.7 mph S31.7 kmh S 26.6 mph42.8 kmh 29.78 in1008.5 mb 0.00 in0.0 mm 0.00 in0.0 mm 0.00 in0.0 mm
06:20 AM 76.6°F24.8°C 72.5°F22.5°C 87% 22.1 mph S35.6 kmh S 26.6 mph42.8 kmh 29.78 in1008.5 mb 0.00 in0.0 mm 0.00 in0.0 mm 0.00 in0.0 mm
06:15 AM 76.5°F24.7°C 72.4°F22.4°C 87% 18.3 mph S29.5 kmh S 25.9 mph41.7 kmh 29.78 in1008.5 mb 0.00 in0.0 mm 0.00 in0.0 mm 0.00 in0.0 mm
06:10 AM 76.5°F24.7°C 72.4°F22.4°C 87% 19.0 mph S30.6 kmh S 25.9 mph41.7 kmh 29.78 in1008.5 mb 0.00 in0.0 mm 0.00 in0.0 mm 0.00 in0.0 mm
06:05 AM 76.5°F24.7°C 72.4°F22.4°C 87% 15.2 mph S24.5 kmh S 25.9 mph41.7 kmh 29.78 in1008.5 mb 0.00 in0.0 mm 0.00 in0.0 mm 0.00 in0.0 mm
06:00 AM 76.5°F24.7°C 72.4°F22.4°C 87% 13.6 mph S21.9 kmh S 28.9 mph46.5 kmh 29.78 in1008.5 mb 0.00 in0.0 mm 0.00 in0.0 mm 0.00 in0.0 mm
05:55 AM 76.5°F24.7°C 72.4°F22.4°C 87% 17.4 mph S28.0 kmh S 28.9 mph46.5 kmh 29.77 in1008.1 mb 0.00 in0.0 mm 0.00 in0.0 mm 0.00 in0.0 mm
05:50 AM 76.6°F24.8°C 72.5°F22.5°C 87% 18.3 mph S29.5 kmh S 25.1 mph40.4 kmh 29.77 in1008.1 mb 0.00 in0.0 mm 0.00 in0.0 mm 0.00 in0.0 mm
05:45 AM 76.6°F24.8°C 72.5°F22.5°C 87% 14.5 mph S23.3 kmh S 25.1 mph40.4 kmh 29.77 in1008.1 mb 0.00 in0.0 mm 0.00 in0.0 mm 0.00 in0.0 mm
05:40 AM 76.6°F24.8°C 72.5°F22.5°C 87% 19.7 mph S31.7 kmh S 26.6 mph42.8 kmh 29.77 in1008.1 mb 0.00 in0.0 mm 0.00 in0.0 mm 0.00 in0.0 mm
05:35 AM 76.8°F24.9°C 72.4°F22.4°C 86% 16.8 mph S27.0 kmh S 27.3 mph43.9 kmh 29.77 in1008.1 mb 0.00 in0.0 mm 0.00 in0.0 mm 0.00 in0.0 mm
05:30 AM 76.8°F24.9°C 72.4°F22.4°C 86% 14.5 mph S23.3 kmh S 27.3 mph43.9 kmh 29.77 in1008.1 mb 0.00 in0.0 mm 0.00 in0.0 mm 0.00 in0.0 mm
05:25 AM 76.8°F24.9°C 72.4°F22.4°C 86% 15.9 mph S25.6 kmh S 27.3 mph43.9 kmh 29.76 in1007.8 mb 0.00 in0.0 mm 0.00 in0.0 mm 0.00 in0.0 mm
05:20 AM 77.0°F25.0°C 72.5°F22.5°C 86% 22.8 mph S36.7 kmh S 26.6 mph42.8 kmh 29.76 in1007.8 mb 0.00 in0.0 mm 0.00 in0.0 mm 0.00 in0.0 mm
05:15 AM 77.0°F25.0°C 72.5°F22.5°C 86% 19.0 mph S30.6 kmh S 26.6 mph42.8 kmh 29.76 in1007.8 mb 0.00 in0.0 mm 0.00 in0.0 mm 0.00 in0.0 mm
05:10 AM 77.0°F25.0°C 72.5°F22.5°C 86% 15.9 mph S25.6 kmh S 26.6 mph42.8 kmh 29.77 in1008.1 mb 0.00 in0.0 mm 0.00 in0.0 mm 0.00 in0.0 mm
05:05 AM 77.0°F25.0°C 72.5°F22.5°C 86% 15.9 mph S25.6 kmh S 28.9 mph46.5 kmh 29.77 in1008.1 mb 0.00 in0.0 mm 0.00 in0.0 mm 0.00 in0.0 mm
05:00 AM 77.0°F25.0°C 72.5°F22.5°C 86% 18.3 mph S29.5 kmh S 28.9 mph46.5 kmh 29.76 in1007.8 mb 0.00 in0.0 mm 0.00 in0.0 mm 0.00 in0.0 mm
04:55 AM 77.0°F25.0°C 72.5°F22.5°C 86% 19.0 mph S30.6 kmh S 28.2 mph45.4 kmh 29.77 in1008.1 mb 0.00 in0.0 mm 0.00 in0.0 mm 0.00 in0.0 mm
04:50 AM 77.0°F25.0°C 72.5°F22.5°C 86% 20.6 mph S33.2 kmh S 28.2 mph45.4 kmh 29.77 in1008.1 mb 0.00 in0.0 mm 0.00 in0.0 mm 0.00 in0.0 mm
04:45 AM 76.8°F24.9°C 72.4°F22.4°C 86% 22.1 mph S35.6 kmh S 28.9 mph46.5 kmh 29.77 in1008.1 mb 0.00 in0.0 mm 0.00 in0.0 mm 0.00 in0.0 mm
04:40 AM 77.0°F25.0°C 72.5°F22.5°C 86% 15.9 mph S25.6 kmh S 28.9 mph46.5 kmh 29.77 in1008.1 mb 0.00 in0.0 mm 0.00 in0.0 mm 0.00 in0.0 mm
04:35 AM 76.8°F24.9°C 72.4°F22.4°C 86% 14.5 mph S23.3 kmh S 23.5 mph37.8 kmh 29.77 in1008.1 mb 0.00 in0.0 mm 0.00 in0.0 mm 0.00 in0.0 mm
04:30 AM 76.8°F24.9°C 72.0°F22.2°C 85% 11.4 mph S18.3 kmh S 22.1 mph35.6 kmh 29.77 in1008.1 mb 0.00 in0.0 mm 0.00 in0.0 mm 0.00 in0.0 mm
04:25 AM 76.8°F24.9°C 72.0°F22.2°C 85% 13.6 mph S21.9 kmh S 25.9 mph41.7 kmh 29.77 in1008.1 mb 0.00 in0.0 mm 0.00 in0.0 mm 0.00 in0.0 mm
04:20 AM 76.8°F24.9°C 72.0°F22.2°C 85% 19.0 mph S30.6 kmh S 25.9 mph41.7 kmh 29.77 in1008.1 mb 0.00 in0.0 mm 0.00 in0.0 mm 0.00 in0.0 mm
04:15 AM 76.8°F24.9°C 72.0°F22.2°C 85% 15.2 mph S24.5 kmh S 24.4 mph39.3 kmh 29.77 in1008.1 mb 0.00 in0.0 mm 0.00 in0.0 mm 0.00 in0.0 mm
04:10 AM 76.8°F24.9°C 72.0°F22.2°C 85% 17.4 mph S28.0 kmh S 25.9 mph41.7 kmh 29.77 in1008.1 mb 0.00 in0.0 mm 0.00 in0.0 mm 0.00 in0.0 mm
04:05 AM 76.6°F24.8°C 71.8°F22.1°C 85% 19.0 mph S30.6 kmh S 25.9 mph41.7 kmh 29.77 in1008.1 mb 0.00 in0.0 mm 0.00 in0.0 mm 0.00 in0.0 mm
04:00 AM 76.8°F24.9°C 72.0°F22.2°C 85% 19.0 mph S30.6 kmh S 25.9 mph41.7 kmh 29.77 in1008.1 mb 0.00 in0.0 mm 0.00 in0.0 mm 0.00 in0.0 mm
03:55 AM 76.6°F24.8°C 71.8°F22.1°C 85% 16.8 mph S27.0 kmh S 25.9 mph41.7 kmh 29.77 in1008.1 mb 0.00 in0.0 mm 0.00 in0.0 mm 0.00 in0.0 mm
03:50 AM 76.8°F24.9°C 72.0°F22.2°C 85% 14.5 mph S23.3 kmh S 25.9 mph41.7 kmh 29.77 in1008.1 mb 0.00 in0.0 mm 0.00 in0.0 mm 0.00 in0.0 mm
03:45 AM 76.8°F24.9°C 72.0°F22.2°C 85% 12.1 mph S19.5 kmh S 25.1 mph40.4 kmh 29.77 in1008.1 mb 0.00 in0.0 mm 0.00 in0.0 mm 0.00 in0.0 mm
03:40 AM 76.8°F24.9°C 71.7°F22.1°C 84% 15.9 mph S25.6 kmh S 25.1 mph40.4 kmh 29.77 in1008.1 mb 0.00 in0.0 mm 0.00 in0.0 mm 0.00 in0.0 mm
03:35 AM 76.8°F24.9°C 71.7°F22.1°C 84% 14.5 mph S23.3 kmh S 26.6 mph42.8 kmh 29.77 in1008.1 mb 0.00 in0.0 mm 0.00 in0.0 mm 0.00 in0.0 mm
03:30 AM 76.8°F24.9°C 71.7°F22.1°C 84% 17.4 mph S28.0 kmh S 26.6 mph42.8 kmh 29.77 in1008.1 mb 0.00 in0.0 mm 0.00 in0.0 mm 0.00 in0.0 mm
03:25 AM 77.0°F25.0°C 71.8°F22.1°C 84% 22.1 mph S35.6 kmh S 26.6 mph42.8 kmh 29.76 in1007.8 mb 0.00 in0.0 mm 0.00 in0.0 mm 0.00 in0.0 mm
03:20 AM 77.0°F25.0°C 71.8°F22.1°C 84% 19.0 mph S30.6 kmh S 26.6 mph42.8 kmh 29.77 in1008.1 mb 0.00 in0.0 mm 0.00 in0.0 mm 0.00 in0.0 mm
03:15 AM 77.0°F25.0°C 71.8°F22.1°C 84% 15.9 mph S25.6 kmh S 28.2 mph45.4 kmh 29.77 in1008.1 mb 0.00 in0.0 mm 0.00 in0.0 mm 0.00 in0.0 mm
03:10 AM 77.2°F25.1°C 71.7°F22.1°C 83% 14.5 mph S23.3 kmh S 34.2 mph55.0 kmh 29.77 in1008.1 mb 0.00 in0.0 mm 0.00 in0.0 mm 0.00 in0.0 mm
03:05 AM 77.0°F25.0°C 71.5°F21.9°C 83% 18.3 mph S29.5 kmh S 34.2 mph55.0 kmh 29.77 in1008.1 mb 0.00 in0.0 mm 0.00 in0.0 mm 0.00 in0.0 mm
03:00 AM 77.2°F25.1°C 71.7°F22.1°C 83% 13.0 mph S20.9 kmh S 27.3 mph43.9 kmh 29.77 in1008.1 mb 0.00 in0.0 mm 0.00 in0.0 mm 0.00 in0.0 mm
02:55 AM 77.2°F25.1°C 71.7°F22.1°C 83% 16.8 mph S27.0 kmh S 27.3 mph43.9 kmh 29.77 in1008.1 mb 0.00 in0.0 mm 0.00 in0.0 mm 0.00 in0.0 mm
02:50 AM 77.2°F25.1°C 71.7°F22.1°C 83% 15.9 mph S25.6 kmh S 24.4 mph39.3 kmh 29.77 in1008.1 mb 0.00 in0.0 mm 0.00 in0.0 mm 0.00 in0.0 mm
02:45 AM 77.2°F25.1°C 71.7°F22.1°C 83% 16.8 mph S27.0 kmh S 24.4 mph39.3 kmh 29.77 in1008.1 mb 0.00 in0.0 mm 0.00 in0.0 mm 0.00 in0.0 mm
02:40 AM 77.4°F25.2°C 71.8°F22.1°C 83% 14.5 mph S23.3 kmh S 23.5 mph37.8 kmh 29.78 in1008.5 mb 0.00 in0.0 mm 0.00 in0.0 mm 0.00 in0.0 mm
02:35 AM 77.4°F25.2°C 71.8°F22.1°C 83% 10.7 mph S17.2 kmh S 25.1 mph40.4 kmh 29.78 in1008.5 mb 0.00 in0.0 mm 0.00 in0.0 mm 0.00 in0.0 mm
02:30 AM 77.2°F25.1°C 71.7°F22.1°C 83% 18.3 mph S29.5 kmh S 25.1 mph40.4 kmh 29.78 in1008.5 mb 0.00 in0.0 mm 0.00 in0.0 mm 0.00 in0.0 mm
02:25 AM 77.4°F25.2°C 71.8°F22.1°C 83% 9.8 mph S15.8 kmh S 28.2 mph45.4 kmh 29.79 in1008.8 mb 0.00 in0.0 mm 0.00 in0.0 mm 0.00 in0.0 mm
02:20 AM 77.4°F25.2°C 71.8°F22.1°C 83% 17.4 mph S28.0 kmh S 28.2 mph45.4 kmh 29.78 in1008.5 mb 0.00 in0.0 mm 0.00 in0.0 mm 0.00 in0.0 mm
02:15 AM 77.4°F25.2°C 71.8°F22.1°C 83% 20.6 mph S33.2 kmh S 25.1 mph40.4 kmh 29.79 in1008.8 mb 0.00 in0.0 mm 0.00 in0.0 mm 0.00 in0.0 mm
02:10 AM 77.4°F25.2°C 71.8°F22.1°C 83% 15.2 mph S24.5 kmh S 23.5 mph37.8 kmh 29.79 in1008.8 mb 0.00 in0.0 mm 0.00 in0.0 mm 0.00 in0.0 mm
02:05 AM 77.4°F25.2°C 71.8°F22.1°C 83% 15.2 mph S24.5 kmh S 24.4 mph39.3 kmh 29.78 in1008.5 mb 0.00 in0.0 mm 0.00 in0.0 mm 0.00 in0.0 mm
02:00 AM 77.4°F25.2°C 71.8°F22.1°C 83% 15.9 mph S25.6 kmh S 24.4 mph39.3 kmh 29.79 in1008.8 mb 0.00 in0.0 mm 0.00 in0.0 mm 0.00 in0.0 mm
01:55 AM 77.4°F25.2°C 71.8°F22.1°C 83% 12.1 mph S19.5 kmh S 22.8 mph36.7 kmh 29.79 in1008.8 mb 0.00 in0.0 mm 0.00 in0.0 mm 0.00 in0.0 mm
01:50 AM 77.4°F25.2°C 71.8°F22.1°C 83% 17.4 mph S28.0 kmh S 22.8 mph36.7 kmh 29.79 in1008.8 mb 0.00 in0.0 mm 0.00 in0.0 mm 0.00 in0.0 mm
01:45 AM 77.4°F25.2°C 71.8°F22.1°C 83% 15.9 mph S25.6 kmh S 22.8 mph36.7 kmh 29.80 in1009.1 mb 0.00 in0.0 mm 0.00 in0.0 mm 0.00 in0.0 mm
01:40 AM 77.4°F25.2°C 71.8°F22.1°C 83% 16.8 mph S27.0 kmh S 23.5 mph37.8 kmh 29.80 in1009.1 mb 0.00 in0.0 mm 0.00 in0.0 mm 0.00 in0.0 mm
01:35 AM 77.4°F25.2°C 71.8°F22.1°C 83% 14.5 mph S23.3 kmh S 23.5 mph37.8 kmh 29.80 in1009.1 mb 0.00 in0.0 mm 0.00 in0.0 mm 0.00 in0.0 mm
01:30 AM 77.4°F25.2°C 71.5°F21.9°C 82% 13.0 mph S20.9 kmh S 21.3 mph34.3 kmh 29.80 in1009.1 mb 0.00 in0.0 mm 0.00 in0.0 mm 0.00 in0.0 mm
01:25 AM 77.4°F25.2°C 71.5°F21.9°C 82% 14.5 mph S23.3 kmh S 21.3 mph34.3 kmh 29.80 in1009.1 mb 0.00 in0.0 mm 0.00 in0.0 mm 0.00 in0.0 mm
01:20 AM 77.2°F25.1°C 71.3°F21.8°C 82% 11.4 mph S18.3 kmh S 20.6 mph33.2 kmh 29.80 in1009.1 mb 0.00 in0.0 mm 0.00 in0.0 mm 0.00 in0.0 mm
01:15 AM 77.4°F25.2°C 71.5°F21.9°C 82% 14.5 mph S23.3 kmh S 22.8 mph36.7 kmh 29.79 in1008.8 mb 0.00 in0.0 mm 0.00 in0.0 mm 0.00 in0.0 mm
01:10 AM 77.4°F25.2°C 71.5°F21.9°C 82% 13.6 mph S21.9 kmh S 23.5 mph37.8 kmh 29.79 in1008.8 mb 0.00 in0.0 mm 0.00 in0.0 mm 0.00 in0.0 mm
01:05 AM 77.4°F25.2°C 71.5°F21.9°C 82% 12.1 mph S19.5 kmh S 25.1 mph40.4 kmh 29.79 in1008.8 mb 0.00 in0.0 mm 0.00 in0.0 mm 0.00 in0.0 mm
01:00 AM 77.4°F25.2°C 71.5°F21.9°C 82% 17.4 mph S28.0 kmh S 25.1 mph40.4 kmh 29.78 in1008.5 mb 0.00 in0.0 mm 0.00 in0.0 mm 0.00 in0.0 mm
12:55 AM 77.4°F25.2°C 71.5°F21.9°C 82% 12.1 mph S19.5 kmh S 24.4 mph39.3 kmh 29.78 in1008.5 mb 0.00 in0.0 mm 0.00 in0.0 mm 0.00 in0.0 mm
12:50 AM 77.4°F25.2°C 71.5°F21.9°C 82% 13.0 mph S20.9 kmh S 21.3 mph34.3 kmh 29.78 in1008.5 mb 0.00 in0.0 mm 0.00 in0.0 mm 0.00 in0.0 mm
12:45 AM 77.4°F25.2°C 71.5°F21.9°C 82% 16.8 mph S27.0 kmh S 22.1 mph35.6 kmh 29.78 in1008.5 mb 0.00 in0.0 mm 0.00 in0.0 mm 0.00 in0.0 mm
12:40 AM 77.4°F25.2°C 71.5°F21.9°C 82% 13.0 mph S20.9 kmh S 22.1 mph35.6 kmh 29.78 in1008.5 mb 0.00 in0.0 mm 0.00 in0.0 mm 0.00 in0.0 mm
12:35 AM 77.4°F25.2°C 71.5°F21.9°C 82% 12.1 mph S19.5 kmh S 25.9 mph41.7 kmh 29.78 in1008.5 mb 0.00 in0.0 mm 0.00 in0.0 mm 0.00 in0.0 mm
12:30 AM 77.2°F25.1°C 71.3°F21.8°C 82% 15.2 mph S24.5 kmh S 25.9 mph41.7 kmh 29.78 in1008.5 mb 0.00 in0.0 mm 0.00 in0.0 mm 0.00 in0.0 mm
12:25 AM 77.4°F25.2°C 71.5°F21.9°C 82% 17.4 mph S28.0 kmh S 24.4 mph39.3 kmh 29.78 in1008.5 mb 0.00 in0.0 mm 0.00 in0.0 mm 0.00 in0.0 mm
12:20 AM 77.2°F25.1°C 71.3°F21.8°C 82% 15.2 mph S24.5 kmh S 24.4 mph39.3 kmh 29.78 in1008.5 mb 0.00 in0.0 mm 0.00 in0.0 mm 0.00 in0.0 mm
12:15 AM 77.4°F25.2°C 71.1°F21.7°C 81% 11.4 mph S18.3 kmh S 24.4 mph39.3 kmh 29.79 in1008.8 mb 0.00 in0.0 mm 0.00 in0.0 mm 0.00 in0.0 mm
12:10 AM 77.2°F25.1°C 71.3°F21.8°C 82% 10.7 mph S17.2 kmh S 24.4 mph39.3 kmh 29.79 in1008.8 mb 0.00 in0.0 mm 0.00 in0.0 mm 0.00 in0.0 mm
12:05 AM 77.2°F25.1°C 71.3°F21.8°C 82% 14.5 mph S23.3 kmh S 24.4 mph39.3 kmh 29.79 in1008.8 mb 0.00 in0.0 mm 0.00 in0.0 mm 0.00 in0.0 mm
12:00 AM 77.4°F25.2°C 71.1°F21.7°C 81% 17.4 mph S28.0 kmh S 22.1 mph35.6 kmh 29.79 in1008.8 mb 0.00 in0.0 mm 0.00 in0.0 mm 0.00 in0.0 mm